createdAt,value
2019-05-20T00:02:23.535Z,8.88
2019-05-20T00:04:45.187Z,9.70
2019-05-20T00:07:15.215Z,11.00
2019-05-20T00:09:45.317Z,10.82
2019-05-20T00:12:15.548Z,11.75
2019-05-20T00:14:45.627Z,11.05
2019-05-20T00:17:15.873Z,12.73
2019-05-20T00:19:46.029Z,12.18
2019-05-20T00:22:17.434Z,12.78
2019-05-20T00:24:47.504Z,12.82
2019-05-20T00:27:17.727Z,12.37
2019-05-20T00:29:47.882Z,12.00
2019-05-20T00:32:19.073Z,11.88
2019-05-20T00:34:49.239Z,10.32
2019-05-20T00:37:19.424Z,10.55
2019-05-20T00:39:49.658Z,8.73
2019-05-20T00:42:19.956Z,9.38
2019-05-20T00:44:50.124Z,8.08
2019-05-20T00:47:20.257Z,8.08
2019-05-20T00:49:50.424Z,7.20
2019-05-20T00:52:20.575Z,6.67
2019-05-20T00:54:50.867Z,6.17
2019-05-20T00:57:21.034Z,6.03
2019-05-20T00:59:51.256Z,5.50
2019-05-20T01:02:21.533Z,5.65
2019-05-20T01:04:51.636Z,6.03
2019-05-20T01:07:21.780Z,6.33
2019-05-20T01:09:53.032Z,7.28
2019-05-20T01:12:23.202Z,6.90
2019-05-20T01:14:53.348Z,6.95
2019-05-20T01:17:23.582Z,6.75
2019-05-20T01:19:53.807Z,6.70
2019-05-20T01:22:23.956Z,7.50
2019-05-20T01:24:54.106Z,7.30
2019-05-20T01:27:25.266Z,7.22
2019-05-20T01:29:55.417Z,7.65
2019-05-20T01:32:25.558Z,6.83
2019-05-20T01:34:55.782Z,7.33
2019-05-20T01:37:26.036Z,7.15
2019-05-20T01:39:56.264Z,7.70
2019-05-20T01:42:26.487Z,8.23
2019-05-20T01:44:56.559Z,7.95
2019-05-20T01:47:26.623Z,7.85
2019-05-20T01:49:56.721Z,8.38
2019-05-20T01:52:26.840Z,7.33
2019-05-20T01:54:57.007Z,8.10
2019-05-20T01:57:27.223Z,8.18
2019-05-20T01:59:57.377Z,7.37
2019-05-20T02:02:27.463Z,8.13
2019-05-20T02:04:57.620Z,7.70
2019-05-20T02:07:27.829Z,8.30
2019-05-20T02:09:57.967Z,8.20
2019-05-20T02:12:28.108Z,8.05
2019-05-20T02:14:59.876Z,7.97
2019-05-20T02:17:30.028Z,7.53
2019-05-20T02:20:00.042Z,7.47
2019-05-20T02:22:30.206Z,7.67
2019-05-20T02:25:00.345Z,7.40
2019-05-20T02:27:30.627Z,7.28
2019-05-20T02:30:00.773Z,8.40
2019-05-20T02:32:30.997Z,8.53
2019-05-20T02:35:01.147Z,9.00
2019-05-20T02:37:31.371Z,10.30
2019-05-20T02:40:01.623Z,9.28
2019-05-20T02:42:32.872Z,9.33
2019-05-20T02:45:03.386Z,8.85
2019-05-20T02:47:33.454Z,7.87
2019-05-20T02:50:04.791Z,7.70
2019-05-20T02:52:34.864Z,7.42
2019-05-20T02:55:07.842Z,7.10
2019-05-20T02:57:37.858Z,6.58
2019-05-20T03:00:09.490Z,5.62
2019-05-20T03:02:39.714Z,5.20
2019-05-20T03:05:09.940Z,5.30
2019-05-20T03:07:40.164Z,4.50
2019-05-20T03:10:10.312Z,5.03
2019-05-20T03:12:40.471Z,4.70
2019-05-20T03:15:11.065Z,5.53
2019-05-20T03:17:41.142Z,5.78
2019-05-20T03:20:11.291Z,5.60
2019-05-20T03:22:41.574Z,5.50
2019-05-20T03:25:12.130Z,6.20
2019-05-20T03:27:42.374Z,6.28
2019-05-20T03:30:12.895Z,6.45
2019-05-20T03:32:43.169Z,6.47
2019-05-20T03:35:13.324Z,6.55
2019-05-20T03:37:43.419Z,6.33
2019-05-20T03:40:13.577Z,6.10
2019-05-20T03:42:43.728Z,6.62
2019-05-20T03:45:13.968Z,6.60
2019-05-20T03:47:44.039Z,6.85
2019-05-20T03:50:14.292Z,6.85
2019-05-20T03:52:44.257Z,7.15
2019-05-20T03:55:14.618Z,7.37
2019-05-20T03:57:44.820Z,8.40
2019-05-20T04:00:15.626Z,9.45
2019-05-20T04:02:45.862Z,10.68
2019-05-20T04:05:16.096Z,12.80
2019-05-20T04:07:46.405Z,13.35
2019-05-20T04:10:16.549Z,13.20
2019-05-20T04:12:46.718Z,13.13
2019-05-20T04:15:17.013Z,13.15
2019-05-20T04:17:47.176Z,14.30
2019-05-20T04:20:17.502Z,15.88
2019-05-20T04:22:47.651Z,16.80
2019-05-20T04:25:18.280Z,17.10
2019-05-20T04:27:48.446Z,17.70
2019-05-20T04:30:19.229Z,18.70
2019-05-20T04:32:49.454Z,18.57
2019-05-20T04:35:22.822Z,18.65
2019-05-20T04:37:51.494Z,19.42
2019-05-20T04:40:21.656Z,19.25
2019-05-20T04:42:51.891Z,20.05
2019-05-20T04:45:22.117Z,19.90
2019-05-20T04:47:52.216Z,20.02
2019-05-20T04:50:22.444Z,20.72
2019-05-20T04:52:52.609Z,20.70
2019-05-20T04:55:22.710Z,21.20
2019-05-20T04:57:52.944Z,22.00
2019-05-20T05:00:51.753Z,23.12
2019-05-20T05:03:23.507Z,22.45
2019-05-20T05:05:53.666Z,22.62
2019-05-20T05:08:24.009Z,23.18
2019-05-20T05:10:55.524Z,24.23
2019-05-20T05:13:26.334Z,22.27
2019-05-20T05:15:56.689Z,22.27
2019-05-20T05:18:27.004Z,23.52
2019-05-20T05:20:57.315Z,21.12
2019-05-20T05:23:27.608Z,21.77
2019-05-20T05:25:57.783Z,21.12
2019-05-20T05:28:28.045Z,21.15
2019-05-20T05:30:58.379Z,21.55
2019-05-20T05:33:28.530Z,21.20
2019-05-20T05:35:58.756Z,21.02
2019-05-20T05:38:28.974Z,21.27
2019-05-20T05:40:59.282Z,20.17
2019-05-20T05:43:29.446Z,19.80
2019-05-20T05:45:59.615Z,20.60
2019-05-20T05:48:29.849Z,20.25
2019-05-20T05:51:00.021Z,20.05
2019-05-20T05:53:30.171Z,21.20
2019-05-20T05:56:00.257Z,21.52
2019-05-20T05:58:30.359Z,20.60
2019-05-20T06:01:00.450Z,21.30
2019-05-20T06:03:30.630Z,20.48
2019-05-20T06:06:11.220Z,19.80
2019-05-20T06:08:32.614Z,20.82
2019-05-20T06:11:02.770Z,19.50
2019-05-20T06:13:33.025Z,19.50
2019-05-20T06:16:03.164Z,21.15
2019-05-20T06:18:33.284Z,19.65
2019-05-20T06:21:03.463Z,20.02
2019-05-20T06:23:33.789Z,20.80
2019-05-20T06:26:03.957Z,19.98
2019-05-20T06:28:34.243Z,19.35
2019-05-20T06:31:04.494Z,19.87
2019-05-20T06:33:34.791Z,19.95
2019-05-20T06:36:05.045Z,19.07
2019-05-20T06:38:37.465Z,17.62
2019-05-20T06:41:08.644Z,18.90
2019-05-20T06:43:39.038Z,17.92
2019-05-20T06:46:09.528Z,17.32
2019-05-20T06:48:39.625Z,18.57
2019-05-20T06:51:09.800Z,18.40
2019-05-20T06:53:39.904Z,18.32
2019-05-20T06:56:10.073Z,18.32
2019-05-20T06:58:40.231Z,17.60
2019-05-20T07:01:10.398Z,17.25
2019-05-20T07:03:40.572Z,17.05
2019-05-20T07:06:10.810Z,16.25
2019-05-20T07:08:40.991Z,15.88
2019-05-20T07:11:11.213Z,17.00
2019-05-20T07:13:41.426Z,15.98
2019-05-20T07:16:11.746Z,14.03
2019-05-20T07:18:42.000Z,14.03
2019-05-20T07:21:12.306Z,14.78
2019-05-20T07:23:42.622Z,14.10
2019-05-20T07:26:12.912Z,13.35
2019-05-20T07:28:43.094Z,14.18
2019-05-20T07:31:13.258Z,15.20
2019-05-20T07:33:43.587Z,16.27
2019-05-20T07:36:13.840Z,17.45
2019-05-20T07:38:44.135Z,16.87
2019-05-20T07:41:14.399Z,17.15
2019-05-20T07:43:45.121Z,16.50
2019-05-20T07:46:15.736Z,17.40
2019-05-20T07:48:46.161Z,15.32
2019-05-20T07:51:17.641Z,16.67
2019-05-20T07:53:47.932Z,16.65
2019-05-20T07:56:21.097Z,16.75
2019-05-20T07:58:54.197Z,14.47
2019-05-20T08:01:24.457Z,15.65
2019-05-20T08:03:54.664Z,15.78
2019-05-20T08:06:24.862Z,15.00
2019-05-20T08:08:55.114Z,18.12
2019-05-20T08:11:25.287Z,20.95
2019-05-20T08:13:55.525Z,23.15
2019-05-20T08:16:25.769Z,21.77
2019-05-20T08:18:56.022Z,24.07
2019-05-20T08:21:26.243Z,24.43
2019-05-20T08:23:56.564Z,26.40
2019-05-20T08:26:26.865Z,26.33
2019-05-20T08:28:57.211Z,27.05
2019-05-20T08:31:27.525Z,26.85
2019-05-20T08:33:57.906Z,26.65
2019-05-20T08:36:28.214Z,27.45
2019-05-20T08:38:59.478Z,29.23
2019-05-20T08:41:29.792Z,27.93
2019-05-20T08:43:59.984Z,24.90
2019-05-20T08:46:30.189Z,27.65
2019-05-20T08:49:00.387Z,28.67
2019-05-20T08:51:30.603Z,27.48
2019-05-20T08:54:00.818Z,29.40
2019-05-20T08:56:31.034Z,28.75
2019-05-20T08:59:01.406Z,29.37
2019-05-20T09:01:31.618Z,31.60
2019-05-20T09:04:01.832Z,31.40
2019-05-20T09:06:33.141Z,29.60
2019-05-20T09:09:05.404Z,29.45
2019-05-20T09:11:35.685Z,30.17
2019-05-20T09:14:05.912Z,30.52
2019-05-20T09:16:36.230Z,30.23
2019-05-20T09:19:06.540Z,30.00
2019-05-20T09:21:36.896Z,30.30
2019-05-20T09:24:07.195Z,29.80
2019-05-20T09:26:37.581Z,28.50
2019-05-20T09:29:11.215Z,27.50
2019-05-20T09:31:40.419Z,26.27
2019-05-20T09:34:10.668Z,24.60
2019-05-20T09:36:40.918Z,23.45
2019-05-20T09:39:11.272Z,24.40
2019-05-20T09:41:41.564Z,27.32
2019-05-20T09:44:11.842Z,26.62
2019-05-20T09:46:42.116Z,26.20
2019-05-20T09:49:12.406Z,26.07
2019-05-20T09:51:42.689Z,24.77
2019-05-20T09:54:13.432Z,24.10
2019-05-20T09:56:43.598Z,21.60
2019-05-20T09:59:16.310Z,18.57
2019-05-20T10:01:45.804Z,17.42
2019-05-20T10:04:16.067Z,18.15
2019-05-20T10:06:46.367Z,19.20
2019-05-20T10:09:16.636Z,19.55
2019-05-20T10:11:46.912Z,18.80
2019-05-20T10:14:17.186Z,18.32
2019-05-20T10:16:47.451Z,18.25
2019-05-20T10:19:17.740Z,19.05
2019-05-20T10:21:48.035Z,18.17
2019-05-20T10:24:18.338Z,18.65
2019-05-20T10:26:48.688Z,17.80
2019-05-20T10:29:18.908Z,16.35
2019-05-20T10:31:49.183Z,17.60
2019-05-20T10:34:20.928Z,18.10
2019-05-20T10:36:51.206Z,17.62
2019-05-20T10:39:21.409Z,18.52
2019-05-20T10:41:51.686Z,17.82
2019-05-20T10:44:21.899Z,18.37
2019-05-20T10:46:52.067Z,18.52
2019-05-20T10:49:22.189Z,18.95
2019-05-20T10:51:52.268Z,18.80
2019-05-20T10:54:22.512Z,18.12
2019-05-20T10:56:52.648Z,20.10
2019-05-20T10:59:22.810Z,19.20
2019-05-20T11:01:53.024Z,21.82
2019-05-20T11:04:23.179Z,23.70
2019-05-20T11:06:53.338Z,22.77
2019-05-20T11:09:23.358Z,23.10
2019-05-20T11:11:53.536Z,22.02
2019-05-20T11:14:23.626Z,21.20
2019-05-20T11:16:53.841Z,23.32
2019-05-20T11:19:23.996Z,21.10
2019-05-20T11:21:54.047Z,20.40
2019-05-20T11:24:24.129Z,20.62
2019-05-20T11:26:54.386Z,20.57
2019-05-20T11:29:24.678Z,20.90
2019-05-20T11:31:54.836Z,19.35
2019-05-20T11:34:25.155Z,21.12
2019-05-20T11:36:55.374Z,20.90
2019-05-20T11:39:33.431Z,22.20
2019-05-20T11:41:57.395Z,22.37
2019-05-20T11:44:27.661Z,21.52
2019-05-20T11:46:57.891Z,21.55
2019-05-20T11:49:29.317Z,20.72
2019-05-20T11:51:59.631Z,21.05
2019-05-20T11:54:29.918Z,21.27
2019-05-20T11:57:00.077Z,21.15
2019-05-20T11:59:30.164Z,22.17
2019-05-20T12:02:03.867Z,22.85
2019-05-20T12:04:32.042Z,22.32
2019-05-20T12:07:02.271Z,21.60
2019-05-20T12:09:46.616Z,23.27
2019-05-20T12:12:04.244Z,22.62
2019-05-20T12:14:34.260Z,23.07
2019-05-20T12:17:04.490Z,21.62
2019-05-20T12:19:34.645Z,21.97
2019-05-20T12:22:04.817Z,22.82
2019-05-20T12:24:34.927Z,22.20
2019-05-20T12:27:05.093Z,20.80
2019-05-20T12:29:35.264Z,22.17
2019-05-20T12:32:05.352Z,23.25
2019-05-20T12:34:35.465Z,20.60
2019-05-20T12:37:05.610Z,21.95
2019-05-20T12:39:35.728Z,21.35
2019-05-20T12:42:05.785Z,20.08
2019-05-20T12:44:35.953Z,20.77
2019-05-20T12:47:06.053Z,19.82
2019-05-20T12:49:36.334Z,19.20
2019-05-20T12:52:06.743Z,17.65
2019-05-20T12:54:38.055Z,14.70
2019-05-20T12:57:08.225Z,16.23
2019-05-20T12:59:38.419Z,16.10
2019-05-20T13:02:08.430Z,15.85
2019-05-20T13:04:39.543Z,16.80
2019-05-20T13:07:09.795Z,15.90
2019-05-20T13:09:40.005Z,15.85
2019-05-20T13:12:10.235Z,16.00
2019-05-20T13:14:40.405Z,16.70
2019-05-20T13:17:10.445Z,15.60
2019-05-20T13:19:40.679Z,13.58
2019-05-20T13:22:11.076Z,14.38
2019-05-20T13:24:41.456Z,16.15
2019-05-20T13:27:11.608Z,16.45
2019-05-20T13:29:41.835Z,14.70
2019-05-20T13:32:12.123Z,14.70
2019-05-20T13:34:42.235Z,15.68
2019-05-20T13:37:12.470Z,14.30
2019-05-20T13:39:42.581Z,13.55
2019-05-20T13:42:13.788Z,13.35
2019-05-20T13:44:43.955Z,13.08
2019-05-20T13:47:14.057Z,10.80
2019-05-20T13:49:44.287Z,9.50
2019-05-20T13:52:14.529Z,10.00
2019-05-20T13:54:48.195Z,10.18
2019-05-20T13:57:18.412Z,10.70
2019-05-20T13:59:49.508Z,12.80
2019-05-20T14:02:19.555Z,11.43
2019-05-20T14:04:49.688Z,10.08
2019-05-20T14:07:19.932Z,10.32
2019-05-20T14:09:50.052Z,10.65
2019-05-20T14:12:20.294Z,11.48
2019-05-20T14:17:57.733Z,12.23
2019-05-20T14:20:27.892Z,13.25
2019-05-20T14:22:58.067Z,13.45
2019-05-20T14:25:29.176Z,14.28
2019-05-20T14:27:59.564Z,14.73
2019-05-20T14:30:29.732Z,16.12
2019-05-20T14:32:59.919Z,16.32
2019-05-20T14:35:30.241Z,14.23
2019-05-20T14:38:00.405Z,14.65
2019-05-20T14:40:33.676Z,11.85
2019-05-20T14:43:03.926Z,12.05
2019-05-20T14:45:34.129Z,15.50
2019-05-20T14:48:04.481Z,15.00
2019-05-20T14:50:34.639Z,12.95
2019-05-20T14:53:04.937Z,13.62
2019-05-20T14:55:42.343Z,12.20
2019-05-20T14:58:07.178Z,11.40
2019-05-20T15:00:37.454Z,12.13
2019-05-20T15:03:07.703Z,11.05
2019-05-20T15:05:37.996Z,8.75
2019-05-20T15:08:08.249Z,9.75
2019-05-20T15:10:38.474Z,9.05
2019-05-20T15:13:30.411Z,11.55
2019-05-20T15:16:01.897Z,10.32
2019-05-20T15:18:40.626Z,10.10
2019-05-20T15:21:39.797Z,10.32
2019-05-20T15:27:35.211Z,12.50
2019-05-20T15:31:14.671Z,8.20
2019-05-20T15:33:42.474Z,9.50
2019-05-20T15:36:12.975Z,8.53
2019-05-20T15:41:58.999Z,8.08
2019-05-20T15:44:29.358Z,7.87
2019-05-20T15:46:59.796Z,8.45
2019-05-20T15:49:30.135Z,8.08
2019-05-20T15:52:00.382Z,8.10
2019-05-20T15:54:30.635Z,8.55
2019-05-20T15:57:00.929Z,6.65
2019-05-20T15:59:44.748Z,6.67
2019-05-20T16:02:03.104Z,6.75
2019-05-20T16:04:37.659Z,7.25
2019-05-20T16:07:08.050Z,8.13
2019-05-20T16:09:38.431Z,10.08
2019-05-20T16:12:09.881Z,8.23
2019-05-20T16:14:40.189Z,9.78
2019-05-20T16:17:11.153Z,11.38
2019-05-20T16:19:41.601Z,12.03
2019-05-20T16:22:11.933Z,11.03
2019-05-20T16:24:45.201Z,12.03
2019-05-20T16:27:14.193Z,11.53
2019-05-20T16:29:44.665Z,11.03
2019-05-20T16:32:14.887Z,9.98
2019-05-20T16:34:45.105Z,9.58
2019-05-20T16:37:15.888Z,9.85
2019-05-20T16:39:46.396Z,9.38
2019-05-20T16:42:16.672Z,10.40
2019-05-20T16:44:47.026Z,7.08
2019-05-20T16:47:17.346Z,7.67
2019-05-20T16:49:47.611Z,7.72
2019-05-20T16:52:17.946Z,6.72
2019-05-20T16:54:48.286Z,6.83
2019-05-20T16:57:18.577Z,7.55
2019-05-20T16:59:49.930Z,7.33
2019-05-20T17:02:20.280Z,7.55
2019-05-20T17:04:51.576Z,6.92
2019-05-20T17:07:22.006Z,7.22
2019-05-20T17:09:52.375Z,7.87
2019-05-20T17:12:22.648Z,8.35
2019-05-20T17:14:52.860Z,7.22
2019-05-20T17:17:23.221Z,8.03
2019-05-20T17:19:53.623Z,8.58
2019-05-20T17:22:23.980Z,8.18
2019-05-20T17:24:54.315Z,8.73
2019-05-20T17:27:24.604Z,8.95
2019-05-20T17:29:55.927Z,8.58
2019-05-20T17:32:26.158Z,9.23
2019-05-20T17:34:56.424Z,10.23
2019-05-20T17:37:26.734Z,10.23
2019-05-20T17:39:57.143Z,8.85
2019-05-20T17:42:27.743Z,8.68
2019-05-20T17:44:57.848Z,8.85
2019-05-20T17:47:28.101Z,8.58
2019-05-20T17:49:58.248Z,8.23
2019-05-20T17:52:29.230Z,8.25
2019-05-20T17:54:59.481Z,8.33
2019-05-20T17:57:29.720Z,8.10
2019-05-20T18:00:00.115Z,7.70
2019-05-20T18:02:30.396Z,8.43
2019-05-20T18:05:00.714Z,7.58
2019-05-20T18:07:31.015Z,8.48
2019-05-20T18:10:04.299Z,8.00
2019-05-20T18:12:34.496Z,9.10
2019-05-20T18:15:05.651Z,8.88
2019-05-20T18:17:35.862Z,9.60
2019-05-20T18:20:06.791Z,9.73
2019-05-20T18:22:37.034Z,9.85
2019-05-20T18:25:07.622Z,9.23
2019-05-20T18:27:38.902Z,9.60
2019-05-20T18:30:09.730Z,8.78
2019-05-20T18:32:39.980Z,9.55
2019-05-20T18:35:10.315Z,9.63
2019-05-20T18:37:40.564Z,8.80
2019-05-20T18:40:14.567Z,9.38
2019-05-20T18:42:43.457Z,9.25
2019-05-20T18:45:13.852Z,9.80
2019-05-20T18:47:44.101Z,8.80
2019-05-20T18:50:14.746Z,9.30
2019-05-20T18:52:44.984Z,8.73
2019-05-20T18:55:15.345Z,8.25
2019-05-20T18:57:45.673Z,8.23
2019-05-20T19:00:17.107Z,9.08
2019-05-20T19:02:47.452Z,9.33
2019-05-20T19:05:17.706Z,9.30
2019-05-20T19:07:47.984Z,9.90
2019-05-20T19:10:19.473Z,10.35
2019-05-20T19:12:49.784Z,10.68
2019-05-20T19:15:20.051Z,10.23
2019-05-20T19:17:50.345Z,10.30
2019-05-20T19:20:23.020Z,9.73
2019-05-20T19:22:52.563Z,10.30
2019-05-20T19:25:35.637Z,10.10
2019-05-20T19:27:54.673Z,9.70
2019-05-20T19:30:25.284Z,9.80
2019-05-20T19:32:55.604Z,10.30
2019-05-20T19:35:26.055Z,8.90
2019-05-20T19:37:56.664Z,10.50
2019-05-20T19:40:26.987Z,10.28
2019-05-20T19:42:57.328Z,9.55
2019-05-20T19:45:27.562Z,11.12
2019-05-20T19:47:57.806Z,11.00
2019-05-20T19:50:28.058Z,11.00
2019-05-20T19:52:58.305Z,11.05
2019-05-20T19:55:28.598Z,11.10
2019-05-20T19:57:58.782Z,12.53
2019-05-20T20:00:29.011Z,11.75
2019-05-20T20:02:59.291Z,12.88
2019-05-20T20:05:29.536Z,12.63
2019-05-20T20:07:59.892Z,13.22
2019-05-20T20:10:30.229Z,12.05
2019-05-20T20:13:01.594Z,12.78
2019-05-20T20:15:31.968Z,14.33
2019-05-20T20:18:02.238Z,12.78
2019-05-20T20:20:33.583Z,11.83
2019-05-20T20:23:03.923Z,11.48
2019-05-20T20:25:34.240Z,10.48
2019-05-20T20:28:04.531Z,11.20
2019-05-20T20:30:34.850Z,11.57
2019-05-20T20:33:05.237Z,10.95
2019-05-20T20:35:38.046Z,9.40
2019-05-20T20:38:07.454Z,11.45
2019-05-20T20:40:43.420Z,41.83
2019-05-20T20:43:13.800Z,22.90
2019-05-20T20:45:44.131Z,16.30
2019-05-20T20:48:14.484Z,12.20
2019-05-20T20:50:44.970Z,77.50
2019-05-20T20:53:15.305Z,76.20
2019-05-20T20:55:45.722Z,52.00
2019-05-20T20:58:16.024Z,75.12
2019-05-20T21:00:46.488Z,73.83
2019-05-20T21:03:16.822Z,31.10
2019-05-20T21:05:47.136Z,82.00
2019-05-20T21:08:17.366Z,95.55
2019-05-20T21:10:47.721Z,39.10
2019-05-20T21:13:18.074Z,83.00
2019-05-20T21:15:48.462Z,53.55
2019-05-20T21:18:18.807Z,34.30
2019-05-20T21:20:49.267Z,31.73
2019-05-20T21:23:19.537Z,29.98
2019-05-20T21:25:51.377Z,21.85
2019-05-20T21:28:21.764Z,17.35
2019-05-20T21:30:52.081Z,15.30
2019-05-20T21:33:22.422Z,11.03
2019-05-20T21:35:52.851Z,11.18
2019-05-20T21:38:25.093Z,9.40
2019-05-20T21:40:55.449Z,8.80
2019-05-20T21:43:25.837Z,9.93
2019-05-20T21:45:56.072Z,8.75
2019-05-20T21:48:26.414Z,10.55
2019-05-20T21:50:56.688Z,9.45
2019-05-20T21:53:26.966Z,10.08
2019-05-20T21:56:00.542Z,8.08
2019-05-20T21:58:31.271Z,8.60
2019-05-20T22:01:01.731Z,7.60
2019-05-20T22:03:32.247Z,7.67
2019-05-20T22:06:02.481Z,9.20
2019-05-20T22:08:32.751Z,8.35
2019-05-20T22:11:07.462Z,9.88
2019-05-20T22:13:39.303Z,11.40
2019-05-20T22:16:09.571Z,8.33
2019-05-20T22:18:39.934Z,6.72
2019-05-20T22:21:11.846Z,7.53
2019-05-20T22:23:43.766Z,8.08
2019-05-20T22:26:14.011Z,7.40
2019-05-20T22:28:44.239Z,5.50
2019-05-20T22:31:14.535Z,5.70
2019-05-20T22:33:44.826Z,9.10
2019-05-20T22:36:15.111Z,6.85
2019-05-20T22:38:45.350Z,5.87
2019-05-20T22:41:15.667Z,5.78
2019-05-20T22:43:45.904Z,5.55
2019-05-20T22:46:16.150Z,5.90
2019-05-20T22:48:46.459Z,6.50
2019-05-20T22:51:16.689Z,5.90
2019-05-20T22:53:46.855Z,6.17
2019-05-20T22:56:19.126Z,5.90
2019-05-20T22:58:49.331Z,6.40
2019-05-20T23:01:19.649Z,6.85
2019-05-20T23:03:56.415Z,6.47
2019-05-20T23:06:21.769Z,7.33
2019-05-20T23:08:52.128Z,6.15
2019-05-20T23:11:22.469Z,6.08
2019-05-20T23:13:52.767Z,6.45
2019-05-20T23:16:23.127Z,6.10
2019-05-20T23:18:53.433Z,6.45
2019-05-20T23:21:23.769Z,7.08
2019-05-20T23:23:54.086Z,6.35
2019-05-20T23:26:24.417Z,5.97
2019-05-20T23:28:54.595Z,7.45
2019-05-20T23:31:25.939Z,6.35
2019-05-20T23:34:10.314Z,7.22
2019-05-20T23:36:28.087Z,7.37
2019-05-20T23:38:58.531Z,7.45
2019-05-20T23:41:28.830Z,6.47
2019-05-20T23:43:59.134Z,6.97
2019-05-20T23:46:29.444Z,7.85
2019-05-20T23:48:59.794Z,5.78
2019-05-20T23:51:29.951Z,6.83
2019-05-20T23:54:00.342Z,5.90
2019-05-20T23:56:30.663Z,5.50
2019-05-20T23:59:00.992Z,6.00
